createdAt,value
2023-04-23T00:01:19.278Z,4.93
2023-04-23T00:03:50.263Z,5.70
2023-04-23T00:06:18.976Z,5.68
2023-04-23T00:08:49.992Z,5.60
2023-04-23T00:11:19.208Z,4.88
2023-04-23T00:13:49.635Z,5.30
2023-04-23T00:16:20.032Z,4.32
2023-04-23T00:18:48.481Z,5.68
2023-04-23T00:21:16.699Z,4.80
2023-04-23T00:23:45.077Z,5.28
2023-04-23T00:26:14.548Z,5.40
2023-04-23T00:28:42.875Z,5.95
2023-04-23T00:31:11.002Z,4.93
2023-04-23T00:33:39.726Z,5.35
2023-04-23T00:36:08.921Z,5.28
2023-04-23T00:38:37.804Z,5.82
2023-04-23T00:41:06.289Z,5.40
2023-04-23T00:43:39.067Z,5.50
2023-04-23T00:46:07.632Z,7.45
2023-04-23T00:48:36.020Z,5.22
2023-04-23T00:51:06.189Z,5.70
2023-04-23T00:53:35.159Z,5.32
2023-04-23T00:56:05.355Z,5.28
2023-04-23T00:58:34.374Z,6.32
2023-04-23T01:01:05.410Z,6.10
2023-04-23T01:03:36.693Z,5.45
2023-04-23T01:06:05.850Z,5.25
2023-04-23T01:08:36.285Z,5.90
2023-04-23T01:11:06.085Z,5.63
2023-04-23T01:13:35.684Z,5.43
2023-04-23T01:16:05.442Z,5.40
2023-04-23T01:18:34.290Z,6.00
2023-04-23T01:21:02.842Z,5.60
2023-04-23T01:23:32.517Z,4.95
2023-04-23T01:26:00.677Z,6.43
2023-04-23T01:28:29.514Z,5.65
2023-04-23T01:30:58.261Z,5.15
2023-04-23T01:33:27.202Z,4.85
2023-04-23T01:35:56.623Z,5.00
2023-04-23T01:38:26.550Z,5.25
2023-04-23T01:40:56.137Z,5.55
2023-04-23T01:43:24.393Z,5.82
2023-04-23T01:45:52.852Z,4.55
2023-04-23T01:48:21.604Z,6.10
2023-04-23T01:50:50.973Z,4.90
2023-04-23T01:53:19.550Z,5.85
2023-04-23T01:55:49.029Z,5.15
2023-04-23T01:58:19.490Z,4.80
2023-04-23T02:00:47.854Z,5.90
2023-04-23T02:03:16.874Z,5.75
2023-04-23T02:05:45.821Z,6.00
2023-04-23T02:08:13.891Z,4.40
2023-04-23T02:10:41.994Z,5.90
2023-04-23T02:13:10.132Z,5.15
2023-04-23T02:15:40.778Z,6.07
2023-04-23T02:18:09.109Z,4.97
2023-04-23T02:20:40.897Z,4.85
2023-04-23T02:23:09.741Z,5.30
2023-04-23T02:25:39.423Z,5.43
2023-04-23T02:28:08.498Z,4.97
2023-04-23T02:30:37.275Z,5.30
2023-04-23T02:33:06.843Z,5.00
2023-04-23T02:35:35.064Z,6.20
2023-04-23T02:38:03.656Z,6.03
2023-04-23T02:40:32.458Z,5.70
2023-04-23T02:43:00.699Z,5.97
2023-04-23T02:45:28.791Z,5.97
2023-04-23T02:47:57.010Z,5.72
2023-04-23T02:50:26.680Z,6.57
2023-04-23T02:52:54.924Z,5.80
2023-04-23T02:55:25.302Z,5.30
2023-04-23T02:57:53.381Z,5.28
2023-04-23T03:00:22.010Z,5.00
2023-04-23T03:02:50.896Z,5.93
2023-04-23T03:05:19.356Z,5.40
2023-04-23T03:07:49.020Z,5.43
2023-04-23T03:10:17.063Z,6.57
2023-04-23T03:12:45.597Z,5.75
2023-04-23T03:15:14.378Z,4.95
2023-04-23T03:17:42.616Z,5.50
2023-04-23T03:20:12.570Z,5.85
2023-04-23T03:22:41.820Z,5.00
2023-04-23T03:25:11.606Z,5.75
2023-04-23T03:27:40.672Z,5.60
2023-04-23T03:30:10.632Z,5.47
2023-04-23T03:32:40.244Z,6.15
2023-04-23T03:35:09.699Z,6.00
2023-04-23T03:37:40.836Z,5.30
2023-04-23T03:40:11.498Z,5.40
2023-04-23T03:42:41.926Z,5.90
2023-04-23T03:45:38.456Z,5.85
2023-04-23T03:48:07.685Z,5.75
2023-04-23T03:50:38.956Z,5.70
2023-04-23T03:53:23.987Z,4.15
2023-04-23T03:56:31.634Z,5.43
2023-04-23T03:59:11.712Z,6.07
2023-04-23T04:01:40.144Z,6.28
2023-04-23T04:04:08.763Z,6.18
2023-04-23T04:06:37.438Z,5.38
2023-04-23T04:09:08.045Z,5.10
2023-04-23T04:11:37.775Z,4.93
2023-04-23T04:14:06.541Z,5.22
2023-04-23T04:16:35.049Z,5.57
2023-04-23T04:19:04.300Z,6.13
2023-04-23T04:21:33.883Z,6.35
2023-04-23T04:24:02.871Z,5.75
2023-04-23T04:26:32.448Z,5.82
2023-04-23T04:29:02.082Z,5.78
2023-04-23T04:31:31.148Z,6.32
2023-04-23T04:33:59.682Z,5.35
2023-04-23T04:36:29.001Z,6.47
2023-04-23T04:38:58.724Z,5.60
2023-04-23T04:41:27.768Z,5.28
2023-04-23T04:43:56.281Z,6.15
2023-04-23T04:46:29.433Z,5.45
2023-04-23T04:48:57.762Z,5.07
2023-04-23T04:51:31.780Z,5.95
2023-04-23T04:54:07.815Z,6.03
2023-04-23T04:56:39.732Z,5.55
2023-04-23T04:59:14.897Z,5.47
2023-04-23T05:01:49.155Z,5.10
2023-04-23T05:04:23.174Z,5.72
2023-04-23T05:06:54.264Z,6.40
2023-04-23T05:09:25.215Z,5.10
2023-04-23T05:11:54.947Z,5.68
2023-04-23T05:14:28.681Z,5.30
2023-04-23T05:17:00.060Z,5.68
2023-04-23T05:19:32.861Z,6.53
2023-04-23T05:22:04.681Z,5.85
2023-04-23T05:24:34.577Z,5.65
2023-04-23T05:27:03.917Z,5.55
2023-04-23T05:29:33.738Z,6.50
2023-04-23T05:32:08.091Z,5.70
2023-04-23T05:34:42.987Z,5.70
2023-04-23T05:37:20.605Z,6.38
2023-04-23T05:39:52.171Z,5.78
2023-04-23T05:42:22.014Z,6.47
2023-04-23T05:44:53.409Z,6.38
2023-04-23T05:47:24.610Z,6.40
2023-04-23T05:49:57.999Z,5.60
2023-04-23T05:52:31.702Z,6.72
2023-04-23T05:55:02.302Z,5.78
2023-04-23T05:57:33.514Z,6.55
2023-04-23T06:00:12.347Z,6.18
2023-04-23T06:02:53.145Z,6.10
2023-04-23T06:05:23.550Z,4.70
2023-04-23T06:08:00.898Z,5.18
2023-04-23T06:10:33.890Z,6.00
2023-04-23T06:13:07.230Z,5.53
2023-04-23T06:15:39.695Z,5.72
2023-04-23T06:18:19.274Z,5.75
2023-04-23T06:20:53.542Z,5.47
2023-04-23T06:23:28.786Z,6.10
2023-04-23T06:26:12.327Z,5.45
2023-04-23T06:28:48.382Z,6.43
2023-04-23T06:31:48.277Z,5.65
2023-04-23T06:34:26.798Z,4.57
2023-04-23T06:37:00.452Z,4.15
2023-04-23T06:39:33.270Z,5.80
2023-04-23T06:42:04.066Z,5.20
2023-04-23T06:44:52.240Z,5.43
2023-04-23T06:47:22.855Z,4.78
2023-04-23T06:49:56.065Z,5.57
2023-04-23T06:52:30.503Z,5.35
2023-04-23T06:55:02.264Z,5.20
2023-04-23T06:57:44.672Z,5.57
2023-04-23T07:00:17.402Z,5.53
2023-04-23T07:02:57.102Z,6.45
2023-04-23T07:05:32.190Z,5.68
2023-04-23T07:08:05.221Z,5.50
2023-04-23T07:10:39.008Z,5.13
2023-04-23T07:13:15.090Z,5.55
2023-04-23T07:15:46.830Z,5.22
2023-04-23T07:18:21.786Z,5.45
2023-04-23T07:20:56.507Z,6.95
2023-04-23T07:23:26.990Z,5.10
2023-04-23T07:25:59.802Z,5.95
2023-04-23T07:28:41.610Z,6.75
2023-04-23T07:31:18.284Z,6.30
2023-04-23T07:33:52.719Z,5.75
2023-04-23T07:36:30.196Z,4.72
2023-04-23T07:38:59.009Z,4.95
2023-04-23T07:41:27.195Z,5.40
2023-04-23T07:43:56.808Z,5.45
2023-04-23T07:46:25.022Z,5.15
2023-04-23T07:48:53.873Z,5.50
2023-04-23T07:51:26.593Z,4.45
2023-04-23T07:53:56.633Z,4.63
2023-04-23T07:56:25.593Z,4.72
2023-04-23T07:58:56.823Z,5.18
2023-04-23T08:01:25.831Z,4.88
2023-04-23T08:03:59.053Z,5.38
2023-04-23T08:06:30.186Z,5.80
2023-04-23T08:09:00.390Z,5.22
2023-04-23T08:11:29.693Z,5.03
2023-04-23T08:13:58.012Z,5.35
2023-04-23T08:16:26.845Z,5.40
2023-04-23T08:19:04.764Z,5.65
2023-04-23T08:21:33.779Z,5.97
2023-04-23T08:24:04.362Z,5.10
2023-04-23T08:26:32.706Z,5.50
2023-04-23T08:29:01.762Z,6.45
2023-04-23T08:31:30.527Z,6.32
2023-04-23T08:33:59.367Z,5.18
2023-04-23T08:36:27.774Z,4.90
2023-04-23T08:38:56.195Z,5.85
2023-04-23T08:41:31.587Z,5.70
2023-04-23T08:44:08.760Z,5.50
2023-04-23T08:46:38.968Z,5.68
2023-04-23T08:49:14.733Z,6.10
2023-04-23T08:51:47.502Z,6.10
2023-04-23T08:54:19.863Z,5.00
2023-04-23T08:56:52.328Z,5.55
2023-04-23T08:59:23.098Z,6.40
2023-04-23T09:01:52.270Z,6.30
2023-04-23T09:04:20.792Z,5.25
2023-04-23T09:06:48.997Z,5.75
2023-04-23T09:09:18.125Z,5.30
2023-04-23T09:11:46.614Z,5.40
2023-04-23T09:14:16.147Z,5.05
2023-04-23T09:16:44.733Z,5.03
2023-04-23T09:19:13.142Z,6.00
2023-04-23T09:21:42.054Z,4.50
2023-04-23T09:24:12.539Z,5.55
2023-04-23T09:26:46.869Z,5.85
2023-04-23T09:29:19.039Z,4.82
2023-04-23T09:31:49.492Z,4.47
2023-04-23T09:34:19.275Z,4.95
2023-04-23T09:36:50.722Z,5.00
2023-04-23T09:39:19.991Z,4.85
2023-04-23T09:41:48.195Z,5.05
2023-04-23T09:44:22.609Z,4.78
2023-04-23T09:46:51.056Z,4.47
2023-04-23T09:49:19.631Z,4.50
2023-04-23T09:51:49.179Z,4.43
2023-04-23T09:54:19.034Z,3.90
2023-04-23T09:56:52.719Z,4.43
2023-04-23T09:59:46.896Z,4.07
2023-04-23T10:02:12.920Z,3.92
2023-04-23T10:04:42.130Z,3.85
2023-04-23T10:07:19.762Z,5.15
2023-04-23T10:09:49.311Z,4.10
2023-04-23T10:12:36.599Z,4.30
2023-04-23T10:15:11.394Z,4.75
2023-04-23T10:17:40.475Z,4.20
2023-04-23T10:20:12.287Z,4.70
2023-04-23T10:22:45.432Z,4.60
2023-04-23T10:25:14.419Z,4.70
2023-04-23T10:27:53.831Z,4.10
2023-04-23T10:30:24.203Z,3.92
2023-04-23T10:32:52.864Z,3.53
2023-04-23T10:35:21.356Z,4.38
2023-04-23T10:37:51.200Z,4.80
2023-04-23T10:40:24.869Z,4.30
2023-04-23T10:42:53.780Z,4.50
2023-04-23T10:45:25.629Z,4.28
2023-04-23T10:47:56.083Z,3.63
2023-04-23T10:50:26.837Z,4.22
2023-04-23T10:52:57.646Z,3.80
2023-04-23T10:55:28.011Z,4.20
2023-04-23T10:58:01.903Z,4.43
2023-04-23T11:00:45.992Z,5.60
2023-04-23T11:03:42.653Z,4.32
2023-04-23T11:06:16.420Z,5.05
2023-04-23T11:08:55.276Z,5.80
2023-04-23T11:11:40.768Z,5.25
2023-04-23T11:14:14.416Z,4.22
2023-04-23T11:16:44.315Z,4.72
2023-04-23T11:19:13.500Z,4.30
2023-04-23T11:22:01.764Z,5.75
2023-04-23T11:24:32.799Z,5.50
2023-04-23T11:27:02.982Z,4.82
2023-04-23T11:29:31.117Z,5.90
2023-04-23T11:32:03.470Z,5.47
2023-04-23T11:34:33.369Z,5.05
2023-04-23T11:37:03.613Z,5.68
2023-04-23T11:39:32.090Z,5.25
2023-04-23T11:42:03.004Z,5.45
2023-04-23T11:44:31.787Z,6.15
2023-04-23T11:47:27.340Z,5.82
2023-04-23T11:49:55.718Z,5.80
2023-04-23T11:52:24.015Z,7.32
2023-04-23T11:54:52.240Z,5.13
2023-04-23T11:57:20.678Z,5.28
2023-04-23T11:59:48.789Z,4.43
2023-04-23T12:02:17.208Z,3.97
2023-04-23T12:04:46.860Z,4.03
2023-04-23T12:07:25.738Z,3.25
2023-04-23T12:09:59.565Z,4.20
2023-04-23T12:12:34.354Z,3.65
2023-04-23T12:15:07.344Z,4.10
2023-04-23T12:17:41.889Z,3.42
2023-04-23T12:20:19.338Z,3.47
2023-04-23T12:22:47.821Z,3.92
2023-04-23T12:25:17.184Z,4.10
2023-04-23T12:27:47.296Z,3.63
2023-04-23T12:30:15.657Z,4.55
2023-04-23T12:32:45.013Z,4.03
2023-04-23T12:35:14.505Z,4.25
2023-04-23T12:37:42.862Z,4.43
2023-04-23T12:40:11.940Z,4.72
2023-04-23T12:42:40.478Z,4.15
2023-04-23T12:45:11.291Z,4.15
2023-04-23T12:47:39.559Z,4.10
2023-04-23T12:50:08.944Z,3.95
2023-04-23T12:52:38.781Z,4.15
2023-04-23T12:55:07.735Z,3.90
2023-04-23T12:57:36.227Z,4.13
2023-04-23T13:00:06.096Z,4.00
2023-04-23T13:02:34.686Z,4.35
2023-04-23T13:05:02.988Z,3.60
2023-04-23T13:07:31.436Z,3.45
2023-04-23T13:10:00.998Z,3.88
2023-04-23T13:12:29.238Z,4.65
2023-04-23T13:14:57.587Z,3.92
2023-04-23T13:17:27.027Z,3.63
2023-04-23T13:19:55.847Z,3.97
2023-04-23T13:22:28.465Z,4.32
2023-04-23T13:24:58.035Z,4.57
2023-04-23T13:27:30.981Z,5.03
2023-04-23T13:29:59.584Z,5.20
2023-04-23T13:32:32.216Z,5.25
2023-04-23T13:35:04.089Z,5.35
2023-04-23T13:37:33.747Z,5.63
2023-04-23T13:40:02.400Z,5.30
2023-04-23T13:42:34.409Z,4.90
2023-04-23T13:45:05.297Z,5.63
2023-04-23T13:47:34.973Z,5.38
2023-04-23T13:50:06.862Z,5.60
2023-04-23T13:52:36.137Z,6.10
2023-04-23T13:55:07.895Z,5.82
2023-04-23T13:57:39.674Z,5.85
2023-04-23T14:00:17.555Z,5.95
2023-04-23T14:02:47.681Z,8.35
2023-04-23T14:05:16.151Z,6.90
2023-04-23T14:07:45.047Z,6.70
2023-04-23T14:10:13.403Z,6.43
2023-04-23T14:12:43.053Z,7.30
2023-04-23T14:15:12.021Z,6.50
2023-04-23T14:17:40.861Z,7.28
2023-04-23T14:20:09.888Z,6.60
2023-04-23T14:22:38.183Z,6.78
2023-04-23T14:25:10.868Z,6.90
2023-04-23T14:27:45.809Z,6.57
2023-04-23T14:30:20.024Z,6.30
2023-04-23T14:32:50.415Z,5.25
2023-04-23T14:35:24.500Z,5.53
2023-04-23T14:37:57.619Z,4.70
2023-04-23T14:40:25.892Z,3.85
2023-04-23T14:42:59.390Z,3.88
2023-04-23T14:45:33.714Z,4.03
2023-04-23T14:48:02.274Z,4.60
2023-04-23T14:50:32.462Z,4.15
2023-04-23T14:53:04.473Z,4.03
2023-04-23T14:55:33.905Z,3.97
2023-04-23T14:58:05.101Z,4.40
2023-04-23T15:00:33.589Z,4.22
2023-04-23T15:03:02.773Z,4.65
2023-04-23T15:05:31.882Z,3.90
2023-04-23T15:08:00.047Z,4.05
2023-04-23T15:10:28.276Z,3.22
2023-04-23T15:13:05.266Z,3.55
2023-04-23T15:15:46.036Z,3.38
2023-04-23T15:18:15.767Z,3.03
2023-04-23T15:20:44.906Z,4.22
2023-04-23T15:23:13.119Z,3.30
2023-04-23T15:25:41.763Z,3.53
2023-04-23T15:28:11.204Z,2.85
2023-04-23T15:30:41.042Z,2.55
2023-04-23T15:33:09.902Z,2.33
2023-04-23T15:35:38.374Z,2.65
2023-04-23T15:38:06.912Z,2.55
2023-04-23T15:40:42.079Z,2.80
2023-04-23T15:43:21.532Z,2.60
2023-04-23T15:45:54.769Z,2.90
2023-04-23T15:48:24.246Z,2.55
2023-04-23T15:50:52.825Z,2.47
2023-04-23T15:53:23.398Z,2.58
2023-04-23T15:55:52.311Z,2.60
2023-04-23T15:58:21.300Z,2.72
2023-04-23T16:00:51.145Z,2.70
2023-04-23T16:03:23.260Z,2.60
2023-04-23T16:05:52.435Z,2.13
2023-04-23T16:08:20.810Z,2.35
2023-04-23T16:10:49.240Z,2.10
2023-04-23T16:13:19.076Z,3.50
2023-04-23T16:15:48.123Z,2.13
2023-04-23T16:18:18.553Z,2.15
2023-04-23T16:20:47.152Z,2.05
2023-04-23T16:23:15.709Z,1.85
2023-04-23T16:25:44.384Z,2.00
2023-04-23T16:28:13.883Z,2.40
2023-04-23T16:30:42.220Z,2.58
2023-04-23T16:33:10.629Z,2.25
2023-04-23T16:35:40.924Z,2.60
2023-04-23T16:38:11.409Z,4.00
2023-04-23T16:40:40.669Z,2.45
2023-04-23T16:43:08.783Z,2.42
2023-04-23T16:45:38.345Z,2.30
2023-04-23T16:48:07.687Z,3.33
2023-04-23T16:50:35.761Z,2.60
2023-04-23T16:53:05.804Z,2.80
2023-04-23T16:55:33.972Z,2.90
2023-04-23T16:58:02.424Z,3.10
2023-04-23T17:00:30.821Z,2.97
2023-04-23T17:02:59.649Z,3.28
2023-04-23T17:05:31.152Z,2.70
2023-04-23T17:07:59.619Z,2.83
2023-04-23T17:10:29.345Z,2.70
2023-04-23T17:12:57.646Z,3.45
2023-04-23T17:15:26.044Z,2.92
2023-04-23T17:17:54.284Z,2.78
2023-04-23T17:20:22.832Z,3.10
2023-04-23T17:22:51.582Z,4.35
2023-04-23T17:25:19.717Z,4.65
2023-04-23T17:27:49.430Z,4.22
2023-04-23T17:30:17.657Z,3.78
2023-04-23T17:32:45.815Z,4.40
2023-04-23T17:35:14.319Z,4.95
2023-04-23T17:37:43.006Z,4.05
2023-04-23T17:40:11.992Z,4.65
2023-04-23T17:42:40.109Z,3.58
2023-04-23T17:45:12.897Z,4.50
2023-04-23T17:47:41.655Z,4.07
2023-04-23T17:50:11.761Z,4.05
2023-04-23T17:52:41.184Z,3.55
2023-04-23T17:55:09.830Z,3.47
2023-04-23T17:57:38.008Z,3.70
2023-04-23T18:00:10.050Z,4.40
2023-04-23T18:02:42.627Z,4.13
2023-04-23T18:05:12.044Z,3.90
2023-04-23T18:07:41.878Z,3.67
2023-04-23T18:10:12.427Z,3.22
2023-04-23T18:12:41.104Z,3.00
2023-04-23T18:15:12.396Z,2.40
2023-04-23T18:17:42.432Z,2.53
2023-04-23T18:20:11.210Z,3.25
2023-04-23T18:22:42.175Z,2.58
2023-04-23T18:25:12.931Z,2.40
2023-04-23T18:27:41.786Z,2.33
2023-04-23T18:30:12.121Z,2.15
2023-04-23T18:32:48.643Z,2.25
2023-04-23T18:35:17.017Z,2.53
2023-04-23T18:37:54.627Z,2.35
2023-04-23T18:40:22.856Z,2.80
2023-04-23T18:42:51.763Z,2.80
2023-04-23T18:45:20.167Z,2.33
2023-04-23T18:47:56.971Z,2.35
2023-04-23T18:50:38.071Z,2.20
2023-04-23T18:53:06.587Z,3.33
2023-04-23T18:55:35.039Z,5.95
2023-04-23T18:58:03.617Z,3.60
2023-04-23T19:00:31.961Z,16.85
2023-04-23T19:03:06.497Z,6.13
2023-04-23T19:05:37.771Z,6.90
2023-04-23T19:08:06.386Z,5.60
2023-04-23T19:10:34.561Z,7.55
2023-04-23T19:13:02.753Z,4.70
2023-04-23T19:15:31.285Z,6.43
2023-04-23T19:17:59.548Z,5.90
2023-04-23T19:20:31.195Z,4.70
2023-04-23T19:22:59.462Z,3.65
2023-04-23T19:25:27.487Z,3.85
2023-04-23T19:27:56.139Z,3.47
2023-04-23T19:30:24.461Z,3.10
2023-04-23T19:32:53.424Z,3.80
2023-04-23T19:35:22.154Z,4.22
2023-04-23T19:37:51.622Z,4.25
2023-04-23T19:40:19.758Z,3.88
2023-04-23T19:42:48.688Z,3.58
2023-04-23T19:45:18.466Z,4.38
2023-04-23T19:47:46.744Z,3.50
2023-04-23T19:50:15.457Z,5.05
2023-04-23T19:52:43.612Z,5.03
2023-04-23T19:55:13.322Z,4.22
2023-04-23T19:57:41.618Z,4.07
2023-04-23T20:00:14.168Z,4.97
2023-04-23T20:02:42.832Z,4.78
2023-04-23T20:05:11.571Z,5.30
2023-04-23T20:07:40.390Z,4.68
2023-04-23T20:10:09.436Z,5.00
2023-04-23T20:12:39.804Z,4.97
2023-04-23T20:15:09.388Z,5.32
2023-04-23T20:17:45.169Z,4.20
2023-04-23T20:20:13.522Z,4.03
2023-04-23T20:22:41.821Z,4.85
2023-04-23T20:25:10.563Z,5.03
2023-04-23T20:27:40.120Z,5.60
2023-04-23T20:30:11.864Z,5.30
2023-04-23T20:32:40.260Z,5.40
2023-04-23T20:35:09.503Z,5.85
2023-04-23T20:37:38.067Z,6.03
2023-04-23T20:40:08.191Z,6.13
2023-04-23T20:42:39.185Z,6.70
2023-04-23T20:45:10.823Z,6.18
2023-04-23T20:47:39.060Z,5.85
2023-04-23T20:50:08.395Z,7.22
2023-04-23T20:52:36.589Z,6.20
2023-04-23T20:55:04.923Z,5.72
2023-04-23T20:57:33.486Z,5.68
2023-04-23T21:00:01.682Z,5.78
2023-04-23T21:02:32.295Z,5.65
2023-04-23T21:05:00.861Z,5.88
2023-04-23T21:07:28.947Z,4.63
2023-04-23T21:09:57.445Z,4.32
2023-04-23T21:12:26.419Z,4.70
2023-04-23T21:15:01.606Z,4.63
2023-04-23T21:17:31.286Z,4.63
2023-04-23T21:19:59.448Z,4.63
2023-04-23T21:22:27.600Z,5.10
2023-04-23T21:24:55.684Z,4.97
2023-04-23T21:27:24.039Z,5.15
2023-04-23T21:29:52.596Z,5.40
2023-04-23T21:32:53.534Z,4.82
2023-04-23T21:35:24.418Z,5.28
2023-04-23T21:37:52.523Z,4.13
2023-04-23T21:40:21.181Z,4.90
2023-04-23T21:42:50.094Z,4.50
2023-04-23T21:45:18.579Z,4.85
2023-04-23T21:47:47.270Z,4.88
2023-04-23T21:50:17.504Z,4.55
2023-04-23T21:52:46.271Z,5.10
2023-04-23T21:55:14.457Z,5.88
2023-04-23T21:57:42.622Z,5.57
2023-04-23T22:00:13.995Z,5.20
2023-04-23T22:02:46.363Z,6.00
2023-04-23T22:05:20.116Z,5.68
2023-04-23T22:07:49.394Z,5.32
2023-04-23T22:10:18.586Z,5.85
2023-04-23T22:12:48.567Z,6.22
2023-04-23T22:15:18.838Z,5.43
2023-04-23T22:17:50.437Z,6.00
2023-04-23T22:20:23.702Z,6.20
2023-04-23T22:22:52.302Z,5.90
2023-04-23T22:25:20.665Z,6.30
2023-04-23T22:27:48.894Z,6.50
2023-04-23T22:30:16.966Z,6.50
2023-04-23T22:32:45.392Z,7.15
2023-04-23T22:35:13.747Z,6.90
2023-04-23T22:37:43.660Z,7.25
2023-04-23T22:40:12.305Z,6.88
2023-04-23T22:42:40.451Z,6.07
2023-04-23T22:45:09.453Z,5.32
2023-04-23T22:47:37.746Z,5.35
2023-04-23T22:50:07.847Z,5.13
2023-04-23T22:52:36.131Z,4.65
2023-04-23T22:55:06.241Z,3.45
2023-04-23T22:57:35.387Z,3.75
2023-04-23T23:00:05.220Z,3.28
2023-04-23T23:02:33.600Z,4.65
2023-04-23T23:05:02.171Z,3.72
2023-04-23T23:07:31.473Z,3.38
2023-04-23T23:09:59.764Z,3.92
2023-04-23T23:12:29.390Z,3.30
2023-04-23T23:14:57.707Z,3.30
2023-04-23T23:17:25.792Z,2.60
2023-04-23T23:19:53.862Z,2.28
2023-04-23T23:22:22.155Z,3.85
2023-04-23T23:24:50.314Z,2.53
2023-04-23T23:27:18.388Z,3.72
2023-04-23T23:29:47.812Z,3.58
2023-04-23T23:32:16.090Z,3.13
2023-04-23T23:34:44.304Z,3.10
2023-04-23T23:37:12.430Z,3.00
2023-04-23T23:39:41.299Z,3.60
2023-04-23T23:42:09.750Z,2.70
2023-04-23T23:44:37.796Z,3.50
2023-04-23T23:47:07.591Z,3.55
2023-04-23T23:49:35.910Z,3.63
2023-04-23T23:52:04.311Z,4.13
2023-04-23T23:54:32.344Z,4.75
2023-04-23T23:57:01.531Z,4.45
2023-04-23T23:59:29.607Z,5.20
